Flight Track Log - Related Links

Times and Time Zones

All times are in EDT time to prevent confusion due to time zone crossing. See the FIV428 flight status page for this flight to view local times or setup timezone preferences in your user account.

Time Position Orientation Groundspeed Altitude Reporting Facility
EDT Latitude Longitude Course Direction KTS MPH feet Rate Location/Type
Sun 06:39:43 PM 37.6500 -122.3667 82° East 169 194 3,400  Level Northern Cal TRACON
Sun 06:40:40 PM 37.6708 -122.3131 64° Northeast 193 222 6,200 2,824 Climbing Oakland Center
Sun 06:41:42 PM 37.7031 -122.2481 58° Northeast 212 244 9,000 2,537 Climbing Oakland Center
Sun 06:42:43 PM 37.7467 -122.1789 51° Northeast 246 283 11,400 2,311 Climbing Oakland Center
Sun 06:43:44 PM 37.7931 -122.1033 52° Northeast 266 306 13,700 2,390 Climbing Oakland Center
Sun 06:44:46 PM 37.8539 -122.0019 53° Northeast 300 345 16,300 2,341 Climbing Oakland Center
Sun 06:45:00 PM 37.9367 -121.7195 82° East  Level FlightAware Approximate
Sun 06:45:47 PM 37.9053 -121.9181 52° Northeast 304 350 18,500  Level Oakland Center
Sun 06:46:48 PM 37.9583 -121.8314 52° Northeast 311 358 20,600 2,146 Climbing Oakland Center
Sun 06:47:50 PM 38.0117 -121.7419 53° Northeast 317 365 22,900 2,049 Climbing Oakland Center
Sun 06:48:51 PM 38.0650 -121.6528 53° Northeast 317 365 24,800 1,820 Climbing Oakland Center
Sun 06:49:52 PM 38.1203 -121.5606 53° Northeast 328 377 26,600 1,902 Climbing Oakland Center
Sun 06:50:54 PM 38.1850 -121.4522 53° Northeast 339 390 28,700 1,854 Climbing Oakland Center
Sun 06:51:55 PM 38.2425 -121.3578 52° Northeast 339 390 30,400 1,574 Climbing Oakland Center
Sun 06:52:56 PM 38.3014 -121.2592 53° Northeast 349 402 31,900 1,415 Climbing Oakland Center
Sun 06:53:58 PM 38.3597 -121.1589 53° Northeast 355 409 33,300 1,366 Climbing Oakland Center
Sun 06:54:59 PM 38.4211 -121.0558 53° Northeast 367 422 34,700 836 Climbing Oakland Center
Sun 06:56:00 PM 38.4847 -120.9472 53° Northeast 384 442 35,000 148 Climbing Oakland Center
Sun 06:57:01 PM 38.5692 -120.8064 52° Northeast 417 480 35,000  Level Oakland Center
Sun 06:58:03 PM 38.6408 -120.6850 53° Northeast 428 493 35,000  Level Oakland Center
Sun 06:59:04 PM 38.7111 -120.5642 53° Northeast 425 489 35,000  Level Oakland Center
Sun 07:00:05 PM 38.7803 -120.4425 54° Northeast 424 488 35,000  Level Oakland Center
Sun 07:01:07 PM 38.8497 -120.3222 53° Northeast 420 483 35,000  Level Oakland Center
Sun 07:02:08 PM 38.9189 -120.2008 54° Northeast 421 484 35,000  Level Oakland Center
Sun 07:03:09 PM 38.9906 -120.0792 53° Northeast 423 487 35,000  Level Oakland Center
Sun 07:04:10 PM 39.0606 -119.9583 53° Northeast 421 484 35,000  Level Oakland Center
Sun 07:05:12 PM 39.1300 -119.8356 54° Northeast 424 488 35,000  Level Oakland Center
Sun 07:06:13 PM 39.1986 -119.7136 54° Northeast 422 486 35,000  Level Oakland Center
Sun 07:07:14 PM 39.2814 -119.5675 54° Northeast 420 483 35,000  Level Oakland Center
Sun 07:08:15 PM 39.3508 -119.4450 54° Northeast 421 484 35,000  Level Oakland Center
Sun 07:09:17 PM 39.4178 -119.3239 54° Northeast 414 476 35,000  Level Oakland Center
Sun 07:10:18 PM 39.4861 -119.2019 54° Northeast 415 478 35,000  Level Oakland Center
Sun 07:11:19 PM 39.5544 -119.0794 54° Northeast 416 479 35,000  Level Oakland Center
Sun 07:12:21 PM 39.6236 -118.9553 54° Northeast 419 482 35,000  Level Oakland Center
Sun 07:13:22 PM 39.6911 -118.8306 55° Northeast 417 480 35,000  Level Oakland Center
Sun 07:14:23 PM 39.7578 -118.7081 55° Northeast 413 475 35,000  Level Oakland Center
Sun 07:15:25 PM 39.8242 -118.5875 54° Northeast 408 470 35,000  Level Oakland Center
Sun 07:16:26 PM 39.8903 -118.4656 55° Northeast 409 471 35,000  Level Oakland Center
Sun 07:17:27 PM 39.9558 -118.3456 54° Northeast 407 468 35,000  Level Oakland Center
Sun 07:18:28 PM 40.0208 -118.2233 55° Northeast 408 470 35,000  Level Oakland Center
Sun 07:19:30 PM 40.0869 -118.1017 55° Northeast 410 472 35,000  Level Oakland Center
Sun 07:20:31 PM 40.1517 -117.9817 55° Northeast 405 466 35,000  Level Oakland Center
Sun 07:21:32 PM 40.2289 -117.8381 55° Northeast 403 464 35,000  Level Oakland Center
Sun 07:21:53 PM 40.2481 -117.8022 55° Northeast 407 468 35,000  Level Salt Lake Center
Sun 07:22:55 PM 40.3089 -117.6869 55° Northeast 403 464 35,000  Level Salt Lake Center
Sun 07:23:56 PM 40.3819 -117.5508 55° Northeast 407 468 35,000  Level Salt Lake Center
Sun 07:24:58 PM 40.4436 -117.4336 55° Northeast 405 466 35,000  Level Salt Lake Center
Sun 07:25:59 PM 40.5056 -117.3150 55° Northeast 409 471 35,000  Level Salt Lake Center
Sun 07:27:01 PM 40.5794 -117.1778 55° Northeast 409 471 35,000  Level Salt Lake Center
Sun 07:28:02 PM 40.6408 -117.0572 56° Northeast 409 471 35,000  Level Salt Lake Center
Sun 07:29:04 PM 40.7031 -116.9381 55° Northeast 409 471 35,000  Level Salt Lake Center
Sun 07:30:05 PM 40.7747 -116.7975 56° Northeast 411 473 35,000  Level Salt Lake Center
Sun 07:31:07 PM 40.8369 -116.6775 56° Northeast 411 473 35,000  Level Salt Lake Center
Sun 07:32:08 PM 40.9089 -116.5367 56° Northeast 413 475 35,000  Level Salt Lake Center
Sun 07:33:10 PM 40.9719 -116.4139 56° Northeast 418 481 35,000  Level Salt Lake Center
Sun 07:34:11 PM 41.0353 -116.2914 56° Northeast 421 484 35,000  Level Salt Lake Center
Sun 07:35:13 PM 41.1072 -116.1450 57° Northeast 423 487 35,000  Level Salt Lake Center
Sun 07:36:14 PM 41.1703 -116.0194 56° Northeast 425 489 35,000  Level Salt Lake Center
Sun 07:37:16 PM 41.2431 -115.8753 56° Northeast 422 486 35,000  Level Salt Lake Center
Sun 07:38:18 PM 41.3044 -115.7511 57° Northeast 420 483 35,000  Level Salt Lake Center
Sun 07:39:19 PM 41.3667 -115.6275 56° Northeast 419 482 35,000  Level Salt Lake Center
Sun 07:40:21 PM 41.4375 -115.4825 57° Northeast 418 481 35,000  Level Salt Lake Center
Sun 07:41:22 PM 41.4983 -115.3589 57° Northeast 417 480 35,000  Level Salt Lake Center
Sun 07:42:24 PM 41.5694 -115.2144 57° Northeast 415 478 35,000  Level Salt Lake Center
Sun 07:43:25 PM 41.6297 -115.0900 57° Northeast 416 479 35,000  Level Salt Lake Center
Sun 07:44:27 PM 41.6906 -114.9664 57° Northeast 414 476 35,000  Level Salt Lake Center
Sun 07:45:29 PM 41.7606 -114.8225 57° Northeast 413 475 35,000  Level Salt Lake Center
Sun 07:46:30 PM 41.8211 -114.6981 57° Northeast 414 476 35,000  Level Salt Lake Center
Sun 07:47:32 PM 41.8914 -114.5519 57° Northeast 417 480 35,000  Level Salt Lake Center
Sun 07:48:33 PM 41.9564 -114.4156 57° Northeast 412 474 35,000  Level Salt Lake Center
Sun 07:49:35 PM 42.0186 -114.2853 57° Northeast 413 475 35,000  Level Salt Lake Center
Sun 07:50:37 PM 42.0797 -114.1558 58° Northeast 412 474 35,000  Level Salt Lake Center
Sun 07:51:38 PM 42.1411 -114.0256 58° Northeast 413 475 35,000  Level Salt Lake Center
Sun 07:52:40 PM 42.2022 -113.8936 58° Northeast 414 476 35,000  Level Salt Lake Center
Sun 07:53:41 PM 42.2633 -113.7647 57° Northeast 409 471 35,000  Level Salt Lake Center
Sun 07:54:43 PM 42.3239 -113.6331 58° Northeast 412 474 35,000  Level Salt Lake Center
Sun 07:55:45 PM 42.3861 -113.5011 57° Northeast 418 481 35,000  Level Salt Lake Center
Sun 07:56:46 PM 42.4594 -113.3439 58° Northeast 414 476 35,000  Level Salt Lake Center
Sun 07:57:48 PM 42.5219 -113.2150 57° Northeast 412 474 35,000  Level Salt Lake Center
Sun 07:58:49 PM 42.5853 -113.0831 57° Northeast 417 480 35,000  Level Salt Lake Center
Sun 07:59:51 PM 42.6431 -112.9481 60° Northeast 416 479 35,000  Level Salt Lake Center
Sun 08:00:53 PM 42.7011 -112.8197 58° Northeast 417 480 35,000  Level Salt Lake Center
Sun 08:01:54 PM 42.7675 -112.6675 59° Northeast 419 482 35,000  Level Salt Lake Center
Sun 08:02:56 PM 42.8242 -112.5386 59° Northeast 414 476 35,000 -677 Level Salt Lake Center
Sun 08:03:58 PM 42.8897 -112.3922 59° Northeast 408 470 33,600 -1,707 Descending Salt Lake Center
Sun 08:04:59 PM 42.9456 -112.2694 58° Northeast 402 463 31,500 -2,146 Descending Salt Lake Center
Sun 08:06:01 PM 43.0058 -112.1331 59° Northeast 380 437 29,200 -2,098 Descending Salt Lake Center
Sun 08:07:02 PM 43.0603 -112.0103 59° Northeast 392 451 27,200 -1,756 Descending Salt Lake Center
Sun 08:08:04 PM 43.1119 -111.8892 60° Northeast 390 449 25,600 -1,756 Descending Salt Lake Center
Sun 08:09:05 PM 43.1706 -111.7550 59° Northeast 373 429 23,600 -1,854 Descending Salt Lake Center
Sun 08:10:07 PM 43.2192 -111.6442 59° Northeast 360 414 21,800 -1,805 Descending Salt Lake Center
Sun 08:11:08 PM 43.2756 -111.5156 59° Northeast 354 407 19,900 -1,805 Descending Salt Lake Center
Sun 08:12:10 PM 43.3225 -111.4069 59° Northeast 349 402 18,100 -1,463 Descending Salt Lake Center
Sun 08:13:11 PM 43.3639 -111.2864 65° Northeast 335 386 16,900 -1,171 Descending Salt Lake Center
Sun 08:14:13 PM 43.3181 -111.1747 119° Southeast 339 390 15,700 -1,561 Descending Salt Lake Center
Sun 08:15:14 PM 43.2656 -111.0681 124° Southeast 339 390 13,700 -1,756 Descending Salt Lake Center
Sun 08:16:16 PM 43.2442 -110.9558 105° East 312 359 12,100 -1,220 Descending Salt Lake Center
Sun 08:17:17 PM 43.2875 -110.8947 46° Northeast 251 289 11,200 -780 Descending Salt Lake Center
Sun 08:18:19 PM 43.3539 -110.8619 20° North 251 289 10,500 -732 Descending Salt Lake Center
Sun 08:19:20 PM 43.4261 -110.8261 20° North 239 275 9,700 -780 Descending Salt Lake Center
Sun 08:20:22 PM 43.4750 -110.8031 19° North 210 242 8,900 -829 Descending Salt Lake Center
Sun 08:21:23 PM 43.5208 -110.7806 20° North 191 220 8,000 -829 Descending Salt Lake Center
Sun 08:22:25 PM 43.5622 -110.7603 20° North 174 200 7,200 -774 Descending Salt Lake Center

Login

Don't have an account? Register now (free) for customized features, flight alerts, and more!